Aérodrome :
LOGIN :

S'inscrire | Disclaimer

   EN    FR    IT 

 










Légende :    VFR   VFR Marginal   IFR   IFR Intensif   IFR Très Intensif
Visi : 
Plafond : 
>= 8 km
>= 3000ft
5 à 8 km
1000 à 3000 ft
1500m à 5 km
500 à 1000 ft
800 à 1500m
200 à 500 ft
< 800m
< 200 ft
Symboles :   Orages  Brouillard  Fortes neiges  Fortes précipitations  Vent > 20 kt
SIGMETs :   Divers  Orages  Givrage  Turbulence  Onde Orograph.  Cendres Volcan.







- Altitude de l'aérodrome : 6 ft
- Code IATA : PSA


LIRP - Galileo Galilei Pisa

DERNIER METAR :
  • 222015Z 31003KT CAVOK 25/23 Q1015 NOSIG

METARs EXPIRÉS :
  • 221945Z 26003KT CAVOK 25/23 Q1014 NOSIG
  • 221915Z 28004KT CAVOK 26/22 Q1014 NOSIG
  • 221845Z 28005KT CAVOK 26/22 Q1014 NOSIG
  • 221815Z 32005KT CAVOK 27/22 Q1014 NOSIG
  • 221745Z 30007KT CAVOK 28/22 Q1014 NOSIG

TAF TAF LIRP
Valide du 22 à 18h jusqu'au 23 à 18h UTC


221700Z 2218/2318 28010KT 9999 FEW045
BECMG 2219/2221 VRB03KT
TEMPO 2300/2306 5000 BR SCT010
PROB30
TEMPO 2302/2305 1500 MIFG SCT005
BECMG 2306/2308 28010KT
Pas de NOTAMs connus pour ce terrain.
1 SIGMET publié pour la FIR Milano (LIMM) :
 
Orages noyés dans la masse
LIMM SIGMET 2 VALID 221855/222055 LIMM- LIMM MILANO FIR EMBD TS OBS N OF LINE N4509 E00639 - N4608 E00853 TOP FL380 MOV ENE INTSF=



MET'MAP, la Météo Aéronautique d'un coup d'oeil ! - Copyright ORBIFLY Décembre 2007 - Disclaimer

ORBIFLY MET'MAP TEAM :

Programmation & Développement : Alexandra Zaïnal
Conception & Développement : Baudouin d'Aumeries
Co-Programmation & Développement : Marc-Olivier Méhu
Soutien technique & logistique : Manuel Goepfert

Contact : metmap@orbifly.com




SOURCES & CREDITS :

   NOAA